CES7368 KJFK-ZBAA
Flight info
| Callsign | CES7368 |
|---|---|
| Flight time | N/A |
| Altitude | 30000 |
| Route | GAYEL Q812 SYR DCT TULEG DCT YYB DCT 50N083W 55N090W 60N100W/N0490F320 63N110W 65N120W 66N130W DCT GOATS DCT BTT/N0488F340 NCA30 OME R338 NATES/N0489F350 R220 NRKEY/N0489F360 R220 NANNO/N0486F370 R220 NODAN/N0490F360 R217 ASTER Y514 SDE Y512 GTC L512 KAMSA/N0492F380 L512 TENAS Y437 KAE Y697 AGAVO/K0895S1160 A591 IKEKA W4 HCH W200 DOVIV W55 DUMAP DUMAP2G |
| Aircraft | B77W/H-SDE1E2E3FGHIJ2J3J4J5M1RWXY/LB1D1 |
Departure
| Time | N/A |
|---|---|
| Airport | John F. Kennedy International Airport (KJFK) |
Arrival
| Time | 2026-05-01 07:40 |
|---|---|
| Airport | Beijing Capital International Airport (ZBAA) |
| Time | Latitude | Longitude | Altitude | Speed | Heading |
|---|---|---|---|---|---|
| 2026-05-01 07:23 | 39.65100 | 116.91488 | 10158 ft | 311 kts | 351° |
| 2026-05-01 07:23 | 39.69232 | 116.90887 | 9990 ft | 286 kts | 351° |
| 2026-05-01 07:24 | 39.71161 | 116.90597 | 9876 ft | 281 kts | 350° |
| 2026-05-01 07:24 | 39.72456 | 116.90400 | 9817 ft | 280 kts | 350° |
| 2026-05-01 07:24 | 39.75047 | 116.90007 | 9674 ft | 280 kts | 350° |
| 2026-05-01 07:24 | 39.76968 | 116.89716 | 9571 ft | 280 kts | 349° |
| 2026-05-01 07:25 | 39.78904 | 116.89422 | 9477 ft | 279 kts | 349° |
| 2026-05-01 07:25 | 39.80854 | 116.89126 | 9380 ft | 280 kts | 350° |
| 2026-05-01 07:25 | 39.82793 | 116.88831 | 9280 ft | 280 kts | 350° |
| 2026-05-01 07:25 | 39.84723 | 116.88538 | 9178 ft | 280 kts | 350° |
| 2026-05-01 07:26 | 39.86679 | 116.88242 | 9068 ft | 280 kts | 350° |
| 2026-05-01 07:26 | 39.88612 | 116.87948 | 8968 ft | 280 kts | 350° |
| 2026-05-01 07:26 | 39.90523 | 116.87657 | 8865 ft | 279 kts | 350° |
| 2026-05-01 07:26 | 39.92475 | 116.87360 | 8765 ft | 279 kts | 350° |
| 2026-05-01 07:27 | 39.94397 | 116.87067 | 8491 ft | 281 kts | 351° |
| 2026-05-01 07:27 | 39.96342 | 116.86771 | 8175 ft | 279 kts | 351° |
| 2026-05-01 07:27 | 39.98269 | 116.86478 | 7881 ft | 276 kts | 351° |
| 2026-05-01 07:27 | 40.00159 | 116.86189 | 7601 ft | 274 kts | 351° |
| 2026-05-01 07:28 | 40.01985 | 116.85560 | 7308 ft | 270 kts | 329° |
| 2026-05-01 07:28 | 40.03390 | 116.83966 | 7032 ft | 265 kts | 303° |
| 2026-05-01 07:28 | 40.04075 | 116.81796 | 6868 ft | 260 kts | 278° |
| 2026-05-01 07:28 | 40.04214 | 116.79430 | 6815 ft | 262 kts | 274° |
| 2026-05-01 07:29 | 40.04724 | 116.77165 | 6740 ft | 266 kts | 300° |
| 2026-05-01 07:29 | 40.05836 | 116.75208 | 6644 ft | 269 kts | 312° |
| 2026-05-01 07:29 | 40.07361 | 116.73820 | 6520 ft | 272 kts | 336° |
| 2026-05-01 07:29 | 40.09190 | 116.73111 | 6404 ft | 274 kts | 348° |
| 2026-05-01 07:30 | 40.11081 | 116.72723 | 6289 ft | 275 kts | 352° |
| 2026-05-01 07:30 | 40.12957 | 116.72422 | 6179 ft | 272 kts | 353° |
| 2026-05-01 07:30 | 40.14875 | 116.72127 | 6071 ft | 275 kts | 353° |
| 2026-05-01 07:30 | 40.16754 | 116.71838 | 5962 ft | 272 kts | 353° |
| 2026-05-01 07:31 | 40.18647 | 116.71545 | 5851 ft | 272 kts | 353° |
| 2026-05-01 07:31 | 40.24161 | 116.70690 | 5676 ft | 250 kts | 353° |
| 2026-05-01 07:32 | 40.27472 | 116.70175 | 5428 ft | 235 kts | 353° |
| 2026-05-01 07:32 | 40.29128 | 116.69917 | 5097 ft | 238 kts | 353° |
| 2026-05-01 07:33 | 40.32285 | 116.68909 | 4782 ft | 235 kts | 322° |
| 2026-05-01 07:33 | 40.33293 | 116.67266 | 4435 ft | 234 kts | 290° |
| 2026-05-01 07:33 | 40.33435 | 116.63085 | 3881 ft | 229 kts | 264° |
| 2026-05-01 07:34 | 40.33318 | 116.61044 | 3584 ft | 221 kts | 259° |
| 2026-05-01 07:34 | 40.31569 | 116.58282 | 2981 ft | 193 kts | 203° |
| 2026-05-01 07:34 | 40.30383 | 116.57571 | 2790 ft | 185 kts | 202° |
| 2026-05-01 07:35 | 40.29207 | 116.56857 | 2487 ft | 185 kts | 202° |
| 2026-05-01 07:35 | 40.28028 | 116.56145 | 2167 ft | 186 kts | 202° |
| 2026-05-01 07:35 | 40.26879 | 116.55443 | 1988 ft | 180 kts | 202° |
| 2026-05-01 07:35 | 40.25700 | 116.54780 | 1958 ft | 185 kts | 193° |
| 2026-05-01 07:36 | 40.24443 | 116.54680 | 1949 ft | 182 kts | 173° |
| 2026-05-01 07:36 | 40.23176 | 116.54903 | 1952 ft | 181 kts | 171° |
| 2026-05-01 07:36 | 40.21923 | 116.55124 | 1960 ft | 182 kts | 172° |
| 2026-05-01 07:36 | 40.20684 | 116.55319 | 1946 ft | 173 kts | 171° |
| 2026-05-01 07:37 | 40.18412 | 116.55680 | 1683 ft | 161 kts | 171° |
| 2026-05-01 07:37 | 40.17298 | 116.55856 | 1480 ft | 158 kts | 172° |
| 2026-05-01 07:37 | 40.16222 | 116.56025 | 1284 ft | 151 kts | 172° |
| 2026-05-01 07:38 | 40.15230 | 116.56180 | 1106 ft | 142 kts | 172° |
| 2026-05-01 07:38 | 40.14258 | 116.56332 | 925 ft | 139 kts | 172° |
| 2026-05-01 07:38 | 40.12342 | 116.56661 | 556 ft | 136 kts | 174° |
| 2026-05-01 07:39 | 40.11394 | 116.56785 | 369 ft | 136 kts | 173° |
| 2026-05-01 07:39 | 40.10446 | 116.56930 | 215 ft | 138 kts | 173° |
| 2026-05-01 07:39 | 40.08825 | 116.57184 | 129 ft | 77 kts | 173° |
| 2026-05-01 07:40 | 40.08490 | 116.57243 | 129 ft | 20 kts | 166° |
| 2026-05-01 07:40 | 40.08371 | 116.57300 | 129 ft | 15 kts | 153° |
| 2026-05-01 07:40 | 40.08298 | 116.57364 | 129 ft | 4 kts | 137° |
| 2026-05-01 07:40 | 40.08288 | 116.57384 | 129 ft | 0 kts | 110° |
| 2026-05-01 07:41 | 40.08288 | 116.57385 | 129 ft | 0 kts | 109° |
| 2026-05-01 07:41 | 40.08286 | 116.57406 | 129 ft | 4 kts | 88° |
| 2026-05-01 07:41 | 40.08298 | 116.57579 | 129 ft | 13 kts | 85° |
| 2026-05-01 07:42 | 40.08311 | 116.57708 | 129 ft | 15 kts | 83° |
| 2026-05-01 07:42 | 40.08325 | 116.57851 | 129 ft | 15 kts | 84° |
| 2026-05-01 07:42 | 40.08337 | 116.57989 | 129 ft | 15 kts | 83° |
| 2026-05-01 07:42 | 40.08350 | 116.58122 | 129 ft | 14 kts | 83° |
| 2026-05-01 07:43 | 40.08362 | 116.58253 | 129 ft | 14 kts | 83° |
| 2026-05-01 07:43 | 40.08374 | 116.58379 | 129 ft | 13 kts | 83° |
| 2026-05-01 07:43 | 40.08396 | 116.58617 | 129 ft | 12 kts | 84° |
| 2026-05-01 07:44 | 40.08417 | 116.58845 | 129 ft | 12 kts | 84° |
| 2026-05-01 07:44 | 40.08438 | 116.59071 | 129 ft | 13 kts | 83° |
| 2026-05-01 07:45 | 40.08391 | 116.59149 | 129 ft | 11 kts | 165° |
| 2026-05-01 07:45 | 40.08310 | 116.59167 | 129 ft | 11 kts | 172° |
| 2026-05-01 07:45 | 40.08230 | 116.59180 | 129 ft | 11 kts | 173° |
| 2026-05-01 07:45 | 40.08136 | 116.59197 | 129 ft | 15 kts | 173° |
| 2026-05-01 07:46 | 40.08072 | 116.59149 | 129 ft | 10 kts | 252° |
| 2026-05-01 07:46 | 40.08033 | 116.59099 | 129 ft | 7 kts | 169° |
| 2026-05-01 07:46 | 40.07934 | 116.59119 | 129 ft | 7 kts | 183° |
| 2026-05-01 07:47 | 40.07902 | 116.59102 | 129 ft | 3 kts | 232° |
| 2026-05-01 07:47 | 40.07895 | 116.59076 | 129 ft | 3 kts | 259° |
| 2026-05-01 07:47 | 40.07888 | 116.59023 | 129 ft | 6 kts | 262° |
| 2026-05-01 07:47 | 40.07886 | 116.58993 | 129 ft | 0 kts | 263° |